sensor_id;sensor_type;location;lat;lon;timestamp;pressure;altitude;pressure_sealevel;temperature;humidity
8101;BME280;4093;53.470;9.832;2022-11-15T00:01:08;101009.66;;;7.67;100.00
8101;BME280;4093;53.470;9.832;2022-11-15T00:03:35;101004.50;;;7.77;100.00
8101;BME280;4093;53.470;9.832;2022-11-15T00:06:04;101016.50;;;7.83;100.00
8101;BME280;4093;53.470;9.832;2022-11-15T00:08:32;101024.22;;;7.84;100.00
8101;BME280;4093;53.470;9.832;2022-11-15T00:11:01;101013.84;;;8.20;100.00
8101;BME280;4093;53.470;9.832;2022-11-15T00:13:30;101016.38;;;8.38;98.18
8101;BME280;4093;53.470;9.832;2022-11-15T00:16:00;101017.94;;;8.70;98.12
8101;BME280;4093;53.470;9.832;2022-11-15T00:18:29;101017.22;;;8.42;98.72
8101;BME280;4093;53.470;9.832;2022-11-15T00:21:03;101022.03;;;9.06;96.60
8101;BME280;4093;53.470;9.832;2022-11-15T00:23:31;101009.06;;;9.18;95.34
8101;BME280;4093;53.470;9.832;2022-11-15T00:25:59;101012.41;;;9.28;94.20
8101;BME280;4093;53.470;9.832;2022-11-15T00:28:27;101005.84;;;8.84;95.62
8101;BME280;4093;53.470;9.832;2022-11-15T00:31:01;101013.59;;;8.84;97.52
8101;BME280;4093;53.470;9.832;2022-11-15T00:33:29;100994.84;;;8.48;97.60
8101;BME280;4093;53.470;9.832;2022-11-15T00:36:03;101011.84;;;8.85;97.57
8101;BME280;4093;53.470;9.832;2022-11-15T00:38:31;100995.50;;;8.86;96.83
8101;BME280;4093;53.470;9.832;2022-11-15T00:41:00;101003.16;;;9.02;97.35
8101;BME280;4093;53.470;9.832;2022-11-15T00:43:35;101002.16;;;9.19;94.84
8101;BME280;4093;53.470;9.832;2022-11-15T00:46:13;101008.22;;;9.09;95.46
8101;BME280;4093;53.470;9.832;2022-11-15T00:48:40;101006.34;;;9.35;93.98
8101;BME280;4093;53.470;9.832;2022-11-15T00:51:08;100996.19;;;9.15;94.64
8101;BME280;4093;53.470;9.832;2022-11-15T00:53:36;100995.06;;;9.42;93.50
8101;BME280;4093;53.470;9.832;2022-11-15T00:56:04;100988.63;;;8.83;96.43
8101;BME280;4093;53.470;9.832;2022-11-15T00:58:31;100987.59;;;9.09;95.27
8101;BME280;4093;53.470;9.832;2022-11-15T01:01:06;100991.72;;;9.34;93.73
8101;BME280;4093;53.470;9.832;2022-11-15T01:03:36;100989.25;;;9.22;93.83
8101;BME280;4093;53.470;9.832;2022-11-15T01:06:05;100992.47;;;9.45;92.82
8101;BME280;4093;53.470;9.832;2022-11-15T01:08:33;100993.31;;;9.47;91.70
8101;BME280;4093;53.470;9.832;2022-11-15T01:11:02;100957.38;;;9.26;92.63
8101;BME280;4093;53.470;9.832;2022-11-15T01:13:31;100970.38;;;9.14;92.21
8101;BME280;4093;53.470;9.832;2022-11-15T01:15:59;100971.22;;;9.16;92.78
8101;BME280;4093;53.470;9.832;2022-11-15T01:18:32;100971.06;;;9.36;91.72
8101;BME280;4093;53.470;9.832;2022-11-15T01:21:06;100963.50;;;9.13;91.94
8101;BME280;4093;53.470;9.832;2022-11-15T01:23:34;100972.97;;;9.11;92.93
8101;BME280;4093;53.470;9.832;2022-11-15T01:26:04;100975.56;;;9.11;92.69
8101;BME280;4093;53.470;9.832;2022-11-15T01:28:33;100973.13;;;8.92;93.69
8101;BME280;4093;53.470;9.832;2022-11-15T01:31:03;100971.31;;;9.03;93.29
8101;BME280;4093;53.470;9.832;2022-11-15T01:33:34;100968.75;;;9.00;92.59
8101;BME280;4093;53.470;9.832;2022-11-15T01:36:05;100971.38;;;8.97;91.72
8101;BME280;4093;53.470;9.832;2022-11-15T01:38:33;100966.06;;;9.14;92.33
8101;BME280;4093;53.470;9.832;2022-11-15T01:41:01;100967.13;;;8.89;93.67
8101;BME280;4093;53.470;9.832;2022-11-15T01:43:31;100968.84;;;8.91;92.33
8101;BME280;4093;53.470;9.832;2022-11-15T01:46:02;100967.13;;;8.89;93.22
8101;BME280;4093;53.470;9.832;2022-11-15T01:48:32;100967.00;;;9.06;92.08
8101;BME280;4093;53.470;9.832;2022-11-15T01:51:02;100961.06;;;8.93;92.49
8101;BME280;4093;53.470;9.832;2022-11-15T01:53:33;100960.06;;;9.15;91.48
8101;BME280;4093;53.470;9.832;2022-11-15T01:56:07;100954.22;;;8.90;90.63
8101;BME280;4093;53.470;9.832;2022-11-15T01:58:36;100943.78;;;9.07;90.51
8101;BME280;4093;53.470;9.832;2022-11-15T02:01:04;100937.00;;;8.95;90.94
8101;BME280;4093;53.470;9.832;2022-11-15T02:03:37;100930.78;;;9.18;90.17
8101;BME280;4093;53.470;9.832;2022-11-15T02:06:09;100931.91;;;8.86;90.42
8101;BME280;4093;53.470;9.832;2022-11-15T02:08:38;100926.00;;;8.72;90.51
8101;BME280;4093;53.470;9.832;2022-11-15T02:11:07;100926.81;;;8.77;89.48
8101;BME280;4093;53.470;9.832;2022-11-15T02:13:36;100915.22;;;7.93;91.22
8101;BME280;4093;53.470;9.832;2022-11-15T02:16:12;100930.72;;;7.78;92.14
8101;BME280;4093;53.470;9.832;2022-11-15T02:18:47;100935.81;;;7.96;93.46
8101;BME280;4093;53.470;9.832;2022-11-15T02:21:21;100928.94;;;7.95;93.76
8101;BME280;4093;53.470;9.832;2022-11-15T02:24:08;100929.69;;;8.25;93.91
8101;BME280;4093;53.470;9.832;2022-11-15T02:29:47;100915.19;;;8.05;93.64
8101;BME280;4093;53.470;9.832;2022-11-15T02:32:26;100929.81;;;7.86;94.63
8101;BME280;4093;53.470;9.832;2022-11-15T02:35:02;100897.19;;;7.92;92.65
8101;BME280;4093;53.470;9.832;2022-11-15T02:37:39;100913.53;;;7.87;90.64
8101;BME280;4093;53.470;9.832;2022-11-15T02:40:13;100925.41;;;8.15;90.38
8101;BME280;4093;53.470;9.832;2022-11-15T02:42:48;100917.88;;;7.65;89.30
8101;BME280;4093;53.470;9.832;2022-11-15T02:45:37;100911.13;;;7.03;90.24
8101;BME280;4093;53.470;9.832;2022-11-15T02:48:09;100917.94;;;7.39;91.88
8101;BME280;4093;53.470;9.832;2022-11-15T02:50:38;100909.38;;;7.28;89.74
8101;BME280;4093;53.470;9.832;2022-11-15T02:53:07;100905.91;;;7.58;88.07
8101;BME280;4093;53.470;9.832;2022-11-15T02:55:37;100909.31;;;7.68;88.40
8101;BME280;4093;53.470;9.832;2022-11-15T02:58:24;100889.66;;;7.26;86.76
8101;BME280;4093;53.470;9.832;2022-11-15T03:01:00;100907.69;;;7.07;88.04
8101;BME280;4093;53.470;9.832;2022-11-15T03:03:45;100910.25;;;7.19;88.17
8101;BME280;4093;53.470;9.832;2022-11-15T03:06:24;100909.41;;;7.01;88.73
8101;BME280;4093;53.470;9.832;2022-11-15T03:09:02;100901.72;;;7.08;88.69
8101;BME280;4093;53.470;9.832;2022-11-15T03:11:35;100918.81;;;7.25;88.20
8101;BME280;4093;53.470;9.832;2022-11-15T03:14:10;100913.69;;;7.34;86.13
8101;BME280;4093;53.470;9.832;2022-11-15T03:16:46;100911.09;;;7.05;86.59
8101;BME280;4093;53.470;9.832;2022-11-15T03:19:22;100912.84;;;7.15;88.66
8101;BME280;4093;53.470;9.832;2022-11-15T03:21:53;100917.09;;;7.40;87.07
8101;BME280;4093;53.470;9.832;2022-11-15T03:24:23;100902.50;;;7.47;88.45
8101;BME280;4093;53.470;9.832;2022-11-15T03:26:53;100909.34;;;7.50;88.26
8101;BME280;4093;53.470;9.832;2022-11-15T03:29:25;100910.19;;;7.52;88.52
8101;BME280;4093;53.470;9.832;2022-11-15T03:31:58;100899.97;;;7.19;88.84
8101;BME280;4093;53.470;9.832;2022-11-15T03:34:33;100901.66;;;7.44;89.44
8101;BME280;4093;53.470;9.832;2022-11-15T03:37:02;100903.41;;;7.28;88.98
8101;BME280;4093;53.470;9.832;2022-11-15T03:39:31;100891.34;;;7.36;89.75
8101;BME280;4093;53.470;9.832;2022-11-15T03:42:10;100894.78;;;7.38;92.79
8101;BME280;4093;53.470;9.832;2022-11-15T03:44:45;100905.84;;;7.78;90.85
8101;BME280;4093;53.470;9.832;2022-11-15T03:47:17;100895.56;;;7.61;90.15
8101;BME280;4093;53.470;9.832;2022-11-15T03:49:52;100906.72;;;7.73;92.26
8101;BME280;4093;53.470;9.832;2022-11-15T03:52:21;100907.63;;;7.52;92.11
8101;BME280;4093;53.470;9.832;2022-11-15T03:54:51;100915.31;;;7.65;91.61
8101;BME280;4093;53.470;9.832;2022-11-15T03:57:19;100908.53;;;7.23;92.77
8101;BME280;4093;53.470;9.832;2022-11-15T03:59:47;100908.41;;;7.81;92.32
8101;BME280;4093;53.470;9.832;2022-11-15T04:02:15;100909.34;;;7.59;93.69
8101;BME280;4093;53.470;9.832;2022-11-15T04:04:43;100908.41;;;7.75;94.76
8101;BME280;4093;53.470;9.832;2022-11-15T04:07:12;100897.94;;;8.17;93.49
8101;BME280;4093;53.470;9.832;2022-11-15T04:09:40;100905.53;;;8.50;92.77
8101;BME280;4093;53.470;9.832;2022-11-15T04:12:21;100901.94;;;8.70;90.27
8101;BME280;4093;53.470;9.832;2022-11-15T04:14:58;100901.06;;;8.71;90.14
8101;BME280;4093;53.470;9.832;2022-11-15T04:17:37;100895.81;;;8.83;89.64
8101;BME280;4093;53.470;9.832;2022-11-15T04:20:07;100883.38;;;8.13;94.56
8101;BME280;4093;53.470;9.832;2022-11-15T04:22:55;100885.75;;;8.55;92.74
8101;BME280;4093;53.470;9.832;2022-11-15T04:25:41;100886.38;;;8.84;91.03
8101;BME280;4093;53.470;9.832;2022-11-15T04:28:10;100880.66;;;8.43;92.40
8101;BME280;4093;53.470;9.832;2022-11-15T04:30:38;100884.94;;;8.43;94.66
8101;BME280;4093;53.470;9.832;2022-11-15T04:33:06;100891.56;;;8.79;92.22
8101;BME280;4093;53.470;9.832;2022-11-15T04:35:33;100892.69;;;8.40;94.17
8101;BME280;4093;53.470;9.832;2022-11-15T04:38:04;100895.84;;;8.80;93.40
8101;BME280;4093;53.470;9.832;2022-11-15T04:40:31;100888.84;;;8.97;93.65
8101;BME280;4093;53.470;9.832;2022-11-15T04:42:59;100893.16;;;8.95;92.59
8101;BME280;4093;53.470;9.832;2022-11-15T04:45:29;100887.16;;;8.93;92.61
8101;BME280;4093;53.470;9.832;2022-11-15T04:47:57;100881.31;;;8.74;92.98
8101;BME280;4093;53.470;9.832;2022-11-15T04:50:25;100881.28;;;8.76;93.81
8101;BME280;4093;53.470;9.832;2022-11-15T04:52:53;100891.25;;;9.14;93.05
8101;BME280;4093;53.470;9.832;2022-11-15T04:55:22;100898.75;;;9.43;91.45
8101;BME280;4093;53.470;9.832;2022-11-15T04:57:58;100860.81;;;8.59;92.53
8101;BME280;4093;53.470;9.832;2022-11-15T05:00:27;100881.84;;;9.09;93.03
8101;BME280;4093;53.470;9.832;2022-11-15T05:02:55;100880.97;;;9.13;92.73
8101;BME280;4093;53.470;9.832;2022-11-15T05:05:40;100876.59;;;9.18;91.38
8101;BME280;4093;53.470;9.832;2022-11-15T05:08:08;100884.41;;;9.12;92.32
8101;BME280;4093;53.470;9.832;2022-11-15T05:10:37;100891.03;;;9.40;91.85
8101;BME280;4093;53.470;9.832;2022-11-15T05:13:05;100882.38;;;9.43;90.97
8101;BME280;4093;53.470;9.832;2022-11-15T05:15:32;100878.53;;;8.97;92.75
8101;BME280;4093;53.470;9.832;2022-11-15T05:18:00;100880.09;;;9.15;93.37
8101;BME280;4093;53.470;9.832;2022-11-15T05:20:28;100877.31;;;9.35;92.87
8101;BME280;4093;53.470;9.832;2022-11-15T05:22:55;100870.72;;;9.05;93.11
8101;BME280;4093;53.470;9.832;2022-11-15T05:25:23;100874.56;;;8.52;96.19
8101;BME280;4093;53.470;9.832;2022-11-15T05:27:52;100873.56;;;8.73;95.89
8101;BME280;4093;53.470;9.832;2022-11-15T05:30:20;100885.38;;;9.01;95.33
8101;BME280;4093;53.470;9.832;2022-11-15T05:32:48;100883.41;;;9.26;93.88
8101;BME280;4093;53.470;9.832;2022-11-15T05:35:19;100889.13;;;9.55;92.85
8101;BME280;4093;53.470;9.832;2022-11-15T05:37:48;100879.91;;;9.32;94.05
8101;BME280;4093;53.470;9.832;2022-11-15T05:40:16;100866.59;;;8.87;97.17
8101;BME280;4093;53.470;9.832;2022-11-15T05:42:44;100877.88;;;8.72;98.78
8101;BME280;4093;53.470;9.832;2022-11-15T05:45:14;100883.91;;;8.70;99.57
8101;BME280;4093;53.470;9.832;2022-11-15T05:47:42;100891.53;;;8.85;100.00
8101;BME280;4093;53.470;9.832;2022-11-15T05:50:11;100890.59;;;8.92;100.00
8101;BME280;4093;53.470;9.832;2022-11-15T05:52:39;100882.97;;;8.77;100.00
8101;BME280;4093;53.470;9.832;2022-11-15T05:55:08;100899.03;;;9.13;100.00
8101;BME280;4093;53.470;9.832;2022-11-15T05:57:36;100888.94;;;8.85;100.00
8101;BME280;4093;53.470;9.832;2022-11-15T06:00:05;100891.63;;;8.73;100.00
8101;BME280;4093;53.470;9.832;2022-11-15T06:02:34;100901.69;;;9.03;100.00
8101;BME280;4093;53.470;9.832;2022-11-15T06:05:02;100894.88;;;8.96;100.00
8101;BME280;4093;53.470;9.832;2022-11-15T06:07:30;100897.28;;;9.16;100.00
8101;BME280;4093;53.470;9.832;2022-11-15T06:09:58;100898.28;;;9.00;100.00
8101;BME280;4093;53.470;9.832;2022-11-15T06:12:26;100911.16;;;9.01;100.00
8101;BME280;4093;53.470;9.832;2022-11-15T06:14:53;100905.91;;;9.11;100.00
8101;BME280;4093;53.470;9.832;2022-11-15T06:17:21;100910.72;;;9.46;100.00
8101;BME280;4093;53.470;9.832;2022-11-15T06:19:50;100899.91;;;9.10;100.00
8101;BME280;4093;53.470;9.832;2022-11-15T06:22:17;100904.28;;;9.03;100.00
8101;BME280;4093;53.470;9.832;2022-11-15T06:24:45;100903.41;;;9.03;100.00
8101;BME280;4093;53.470;9.832;2022-11-15T06:27:13;100913.69;;;9.09;100.00
8101;BME280;4093;53.470;9.832;2022-11-15T06:29:40;100905.78;;;9.26;100.00
8101;BME280;4093;53.470;9.832;2022-11-15T06:32:08;100911.75;;;9.31;100.00
8101;BME280;4093;53.470;9.832;2022-11-15T06:37:39;100877.75;;;8.86;100.00
8101;BME280;4093;53.470;9.832;2022-11-15T06:40:09;100916.97;;;9.25;100.00
8101;BME280;4093;53.470;9.832;2022-11-15T06:42:37;100918.75;;;9.18;100.00
8101;BME280;4093;53.470;9.832;2022-11-15T06:45:05;100923.84;;;9.26;100.00
8101;BME280;4093;53.470;9.832;2022-11-15T06:47:33;100924.75;;;9.22;100.00
8101;BME280;4093;53.470;9.832;2022-11-15T06:50:00;100925.47;;;9.33;100.00
8101;BME280;4093;53.470;9.832;2022-11-15T06:52:28;100919.44;;;9.37;100.00
8101;BME280;4093;53.470;9.832;2022-11-15T06:55:00;100928.03;;;9.36;100.00
8101;BME280;4093;53.470;9.832;2022-11-15T06:57:27;100920.25;;;9.39;100.00
8101;BME280;4093;53.470;9.832;2022-11-15T06:59:55;100927.19;;;9.37;100.00
8101;BME280;4093;53.470;9.832;2022-11-15T07:02:22;100930.50;;;9.48;100.00
8101;BME280;4093;53.470;9.832;2022-11-15T07:04:50;100933.09;;;9.48;100.00
8101;BME280;4093;53.470;9.832;2022-11-15T07:07:18;100943.25;;;9.65;100.00
8101;BME280;4093;53.470;9.832;2022-11-15T07:09:45;100944.91;;;9.68;100.00
8101;BME280;4093;53.470;9.832;2022-11-15T07:12:14;100942.47;;;9.56;100.00
8101;BME280;4093;53.470;9.832;2022-11-15T07:14:42;100942.34;;;9.68;100.00
8101;BME280;4093;53.470;9.832;2022-11-15T07:17:10;100949.00;;;9.90;98.77
8101;BME280;4093;53.470;9.832;2022-11-15T07:19:37;100949.06;;;9.83;99.63
8101;BME280;4093;53.470;9.832;2022-11-15T07:22:05;100945.00;;;9.59;100.00
8101;BME280;4093;53.470;9.832;2022-11-15T07:24:32;100956.09;;;9.71;100.00
8101;BME280;4093;53.470;9.832;2022-11-15T07:27:00;100944.97;;;9.65;99.43
8101;BME280;4093;53.470;9.832;2022-11-15T07:29:29;100938.03;;;9.70;99.48
8101;BME280;4093;53.470;9.832;2022-11-15T07:31:57;100950.91;;;9.75;99.55
8101;BME280;4093;53.470;9.832;2022-11-15T07:34:25;100948.31;;;9.73;98.98
8101;BME280;4093;53.470;9.832;2022-11-15T07:36:52;100941.56;;;9.63;99.18
8101;BME280;4093;53.470;9.832;2022-11-15T07:39:20;100928.16;;;9.24;100.00
8101;BME280;4093;53.470;9.832;2022-11-15T07:41:48;100930.59;;;9.41;100.00
8101;BME280;4093;53.470;9.832;2022-11-15T07:44:37;100938.06;;;9.67;99.33
8101;BME280;4093;53.470;9.832;2022-11-15T07:47:04;100938.16;;;9.58;100.00
8101;BME280;4093;53.470;9.832;2022-11-15T07:49:32;100899.75;;;9.24;100.00
8101;BME280;4093;53.470;9.832;2022-11-15T07:51:59;100938.97;;;9.63;100.00
8101;BME280;4093;53.470;9.832;2022-11-15T07:54:27;100926.28;;;9.40;100.00
8101;BME280;4093;53.470;9.832;2022-11-15T07:56:55;100905.81;;;9.23;100.00
8101;BME280;4093;53.470;9.832;2022-11-15T07:59:26;100944.16;;;9.60;100.00
8101;BME280;4093;53.470;9.832;2022-11-15T08:01:55;100941.31;;;9.84;99.75
8101;BME280;4093;53.470;9.832;2022-11-15T08:04:23;100927.69;;;9.70;99.44
8101;BME280;4093;53.470;9.832;2022-11-15T08:06:51;100933.81;;;9.63;100.00
8101;BME280;4093;53.470;9.832;2022-11-15T08:09:18;100936.25;;;9.73;99.67
8101;BME280;4093;53.470;9.832;2022-11-15T08:11:46;100936.03;;;9.96;99.26
8101;BME280;4093;53.470;9.832;2022-11-15T08:14:14;100924.13;;;9.80;100.00
8101;BME280;4093;53.470;9.832;2022-11-15T08:16:41;100943.03;;;9.85;100.00
8101;BME280;4093;53.470;9.832;2022-11-15T08:19:10;100946.06;;;10.18;97.95
8101;BME280;4093;53.470;9.832;2022-11-15T08:21:38;100936.09;;;9.89;99.49
8101;BME280;4093;53.470;9.832;2022-11-15T08:24:09;100941.81;;;10.14;98.33
8101;BME280;4093;53.470;9.832;2022-11-15T08:26:37;100932.34;;;10.14;98.25
8101;BME280;4093;53.470;9.832;2022-11-15T08:29:05;100924.69;;;10.07;99.42
8101;BME280;4093;53.470;9.832;2022-11-15T08:31:35;100940.09;;;10.16;99.09
8101;BME280;4093;53.470;9.832;2022-11-15T08:34:04;100942.38;;;10.39;98.38
8101;BME280;4093;53.470;9.832;2022-11-15T08:36:33;100945.69;;;10.50;97.52
8101;BME280;4093;53.470;9.832;2022-11-15T08:39:11;100923.56;;;10.29;97.97
8101;BME280;4093;53.470;9.832;2022-11-15T08:41:39;100945.91;;;10.35;98.48
8101;BME280;4093;53.470;9.832;2022-11-15T08:44:07;100946.91;;;10.22;98.72
8101;BME280;4093;53.470;9.832;2022-11-15T08:46:34;100948.53;;;10.30;98.28
8101;BME280;4093;53.470;9.832;2022-11-15T08:49:02;100944.13;;;10.38;99.18
8101;BME280;4093;53.470;9.832;2022-11-15T08:51:30;100939.28;;;10.74;98.15
8101;BME280;4093;53.470;9.832;2022-11-15T08:53:59;100943.53;;;10.81;97.41
8101;BME280;4093;53.470;9.832;2022-11-15T08:56:26;100936.47;;;10.89;96.62
8101;BME280;4093;53.470;9.832;2022-11-15T08:58:54;100933.13;;;11.35;94.89
8101;BME280;4093;53.470;9.832;2022-11-15T09:01:22;100930.56;;;11.34;95.14
8101;BME280;4093;53.470;9.832;2022-11-15T09:03:50;100929.44;;;11.49;94.61
8101;BME280;4093;53.470;9.832;2022-11-15T09:06:17;100925.78;;;11.61;94.72
8101;BME280;4093;53.470;9.832;2022-11-15T09:08:45;100938.19;;;11.90;93.35
8101;BME280;4093;53.470;9.832;2022-11-15T09:11:15;100932.56;;;12.11;92.41
8101;BME280;4093;53.470;9.832;2022-11-15T09:13:46;100932.56;;;12.11;92.31
8101;BME280;4093;53.470;9.832;2022-11-15T09:16:14;100933.81;;;12.34;92.18
8101;BME280;4093;53.470;9.832;2022-11-15T09:18:41;100940.66;;;12.75;90.66
8101;BME280;4093;53.470;9.832;2022-11-15T09:21:09;100922.78;;;12.64;89.65
8101;BME280;4093;53.470;9.832;2022-11-15T09:23:37;100915.25;;;12.54;90.14
8101;BME280;4093;53.470;9.832;2022-11-15T09:26:05;100923.50;;;12.31;91.89
8101;BME280;4093;53.470;9.832;2022-11-15T09:28:36;100907.75;;;12.01;92.41
8101;BME280;4093;53.470;9.832;2022-11-15T09:31:05;100916.06;;;12.15;93.30
8101;BME280;4093;53.470;9.832;2022-11-15T09:33:33;100906.91;;;11.99;92.78
8101;BME280;4093;53.470;9.832;2022-11-15T09:36:03;100924.09;;;12.03;94.06
8101;BME280;4093;53.470;9.832;2022-11-15T09:38:31;100914.00;;;12.31;91.77
8101;BME280;4093;53.470;9.832;2022-11-15T09:41:24;100914.75;;;13.09;89.29
8101;BME280;4093;53.470;9.832;2022-11-15T09:44:06;100903.28;;;12.46;91.88
8101;BME280;4093;53.470;9.832;2022-11-15T09:46:42;100839.47;;;12.02;92.78
8101;BME280;4093;53.470;9.832;2022-11-15T09:49:14;100921.34;;;12.51;92.66
8101;BME280;4093;53.470;9.832;2022-11-15T09:51:44;100926.19;;;12.66;92.24
8101;BME280;4093;53.470;9.832;2022-11-15T09:54:21;100924.72;;;12.55;90.04
8101;BME280;4093;53.470;9.832;2022-11-15T09:57:12;100910.06;;;12.52;90.28
8101;BME280;4093;53.470;9.832;2022-11-15T09:59:56;100911.19;;;12.42;91.64
8101;BME280;4093;53.470;9.832;2022-11-15T10:02:58;100917.22;;;12.42;91.92
8101;BME280;4093;53.470;9.832;2022-11-15T10:05:28;100914.19;;;12.23;91.88
8101;BME280;4093;53.470;9.832;2022-11-15T10:08:01;100902.75;;;11.92;93.63
8101;BME280;4093;53.470;9.832;2022-11-15T10:10:37;100914.19;;;12.23;92.60
8101;BME280;4093;53.470;9.832;2022-11-15T10:13:11;100912.81;;;12.07;92.95
8101;BME280;4093;53.470;9.832;2022-11-15T10:15:43;100909.88;;;12.22;91.87
8101;BME280;4093;53.470;9.832;2022-11-15T10:18:16;100913.59;;;12.09;94.19
8101;BME280;4093;53.470;9.832;2022-11-15T10:20:50;100912.25;;;12.70;91.86
8101;BME280;4093;53.470;9.832;2022-11-15T10:23:22;100898.13;;;12.06;93.73
8101;BME280;4093;53.470;9.832;2022-11-15T10:25:51;100892.44;;;11.89;94.88
8101;BME280;4093;53.470;9.832;2022-11-15T10:28:22;100896.41;;;12.05;94.22
8101;BME280;4093;53.470;9.832;2022-11-15T10:30:56;100892.75;;;12.54;91.97
8101;BME280;4093;53.470;9.832;2022-11-15T10:33:27;100900.47;;;12.57;92.98
8101;BME280;4093;53.470;9.832;2022-11-15T10:36:18;100886.13;;;12.02;94.64
8101;BME280;4093;53.470;9.832;2022-11-15T10:38:56;100895.25;;;11.76;95.51
8101;BME280;4093;53.470;9.832;2022-11-15T10:41:38;100888.50;;;12.11;94.44
8101;BME280;4093;53.470;9.832;2022-11-15T10:44:21;100883.56;;;12.00;94.10
8101;BME280;4093;53.470;9.832;2022-11-15T10:47:16;100881.13;;;12.33;94.21
8101;BME280;4093;53.470;9.832;2022-11-15T10:49:55;100875.75;;;12.41;93.63
8101;BME280;4093;53.470;9.832;2022-11-15T10:52:23;100865.19;;;12.11;94.50
8101;BME280;4093;53.470;9.832;2022-11-15T10:54:55;100873.16;;;12.41;93.96
8101;BME280;4093;53.470;9.832;2022-11-15T10:57:27;100875.19;;;12.65;93.23
8101;BME280;4093;53.470;9.832;2022-11-15T10:59:57;100864.06;;;12.60;93.42
8101;BME280;4093;53.470;9.832;2022-11-15T11:02:31;100867.13;;;12.40;93.50
8101;BME280;4093;53.470;9.832;2022-11-15T11:04:59;100857.63;;;12.77;92.02
8101;BME280;4093;53.470;9.832;2022-11-15T11:07:30;100855.88;;;13.10;91.29
8101;BME280;4093;53.470;9.832;2022-11-15T11:10:00;100849.84;;;12.77;93.53
8101;BME280;4093;53.470;9.832;2022-11-15T11:12:31;100827.00;;;12.89;91.91
8101;BME280;4093;53.470;9.832;2022-11-15T11:15:01;100849.59;;;13.20;90.88
8101;BME280;4093;53.470;9.832;2022-11-15T11:17:46;100839.97;;;13.24;90.49
8101;BME280;4093;53.470;9.832;2022-11-15T11:20:20;100839.09;;;13.25;89.74
8101;BME280;4093;53.470;9.832;2022-11-15T11:23:00;100835.25;;;13.05;91.36
8101;BME280;4093;53.470;9.832;2022-11-15T11:25:34;100822.50;;;12.96;91.19
8101;BME280;4093;53.470;9.832;2022-11-15T11:28:13;100829.75;;;13.17;91.01
8101;BME280;4093;53.470;9.832;2022-11-15T11:30:55;100832.94;;;13.29;91.58
8101;BME280;4093;53.470;9.832;2022-11-15T11:33:31;100830.03;;;13.07;91.96
8101;BME280;4093;53.470;9.832;2022-11-15T11:36:09;100817.63;;;12.85;92.98
8101;BME280;4093;53.470;9.832;2022-11-15T11:38:51;100822.16;;;13.72;90.14
8101;BME280;4093;53.470;9.832;2022-11-15T11:41:37;100813.78;;;14.48;87.68
8101;BME280;4093;53.470;9.832;2022-11-15T11:44:21;100814.53;;;14.78;85.16
8101;BME280;4093;53.470;9.832;2022-11-15T11:46:59;100811.88;;;14.80;84.92
8101;BME280;4093;53.470;9.832;2022-11-15T11:49:36;100817.00;;;14.00;88.52
8101;BME280;4093;53.470;9.832;2022-11-15T11:52:11;100818.16;;;14.46;87.04
8101;BME280;4093;53.470;9.832;2022-11-15T11:54:47;100778.38;;;14.16;85.89
8101;BME280;4093;53.470;9.832;2022-11-15T11:57:23;100796.25;;;14.27;87.07
8101;BME280;4093;53.470;9.832;2022-11-15T11:59:56;100798.75;;;14.30;86.53
8101;BME280;4093;53.470;9.832;2022-11-15T12:02:28;100808.22;;;14.32;87.01
8101;BME280;4093;53.470;9.832;2022-11-15T12:05:04;100787.31;;;13.79;87.49
8101;BME280;4093;53.470;9.832;2022-11-15T12:07:35;100800.63;;;14.25;87.19
8101;BME280;4093;53.470;9.832;2022-11-15T12:10:15;100790.88;;;14.31;86.58
8101;BME280;4093;53.470;9.832;2022-11-15T12:12:53;100787.91;;;14.16;87.80
8101;BME280;4093;53.470;9.832;2022-11-15T12:15:24;100791.28;;;14.19;87.47
8101;BME280;4093;53.470;9.832;2022-11-15T12:17:55;100723.69;;;13.63;87.40
8101;BME280;4093;53.470;9.832;2022-11-15T12:20:26;100788.44;;;14.27;86.66
8101;BME280;4093;53.470;9.832;2022-11-15T12:22:58;100785.94;;;14.50;86.98
8101;BME280;4093;53.470;9.832;2022-11-15T12:25:30;100777.88;;;14.31;86.16
8101;BME280;4093;53.470;9.832;2022-11-15T12:28:02;100782.28;;;14.57;85.99
8101;BME280;4093;53.470;9.832;2022-11-15T12:30:42;100771.59;;;14.65;85.49
8101;BME280;4093;53.470;9.832;2022-11-15T12:33:33;100765.94;;;14.26;86.76
8101;BME280;4093;53.470;9.832;2022-11-15T12:36:04;100756.13;;;14.07;87.51
8101;BME280;4093;53.470;9.832;2022-11-15T12:38:55;100765.03;;;14.53;86.14
8101;BME280;4093;53.470;9.832;2022-11-15T12:41:25;100764.09;;;14.56;86.30
8101;BME280;4093;53.470;9.832;2022-11-15T12:43:54;100764.31;;;14.75;85.81
8101;BME280;4093;53.470;9.832;2022-11-15T12:47:02;100750.53;;;14.73;85.76
8101;BME280;4093;53.470;9.832;2022-11-15T12:49:43;100753.34;;;14.14;87.22
8101;BME280;4093;53.470;9.832;2022-11-15T12:52:13;100755.63;;;14.51;86.74
8101;BME280;4093;53.470;9.832;2022-11-15T12:57:51;100732.63;;;14.64;85.70
8101;BME280;4093;53.470;9.832;2022-11-15T13:00:43;100726.59;;;14.35;87.30
8101;BME280;4093;53.470;9.832;2022-11-15T13:03:34;100724.44;;;14.23;87.31
8101;BME280;4093;53.470;9.832;2022-11-15T13:06:07;100721.75;;;14.76;85.89
8101;BME280;4093;53.470;9.832;2022-11-15T13:08:48;100720.66;;;15.07;84.52
8101;BME280;4093;53.470;9.832;2022-11-15T13:11:43;100716.19;;;14.62;85.90
8101;BME280;4093;53.470;9.832;2022-11-15T13:14:38;100704.66;;;14.69;86.25
8101;BME280;4093;53.470;9.832;2022-11-15T13:17:21;100706.22;;;14.74;85.30
8101;BME280;4093;53.470;9.832;2022-11-15T13:19:55;100715.34;;;14.86;84.99
8101;BME280;4093;53.470;9.832;2022-11-15T13:22:25;100702.97;;;14.41;86.82
8101;BME280;4093;53.470;9.832;2022-11-15T13:28:11;100703.69;;;14.46;87.10
8101;BME280;4093;53.470;9.832;2022-11-15T13:30:50;100698.84;;;14.35;87.47
8101;BME280;4093;53.470;9.832;2022-11-15T13:33:21;100706.19;;;14.49;86.15
8101;BME280;4093;53.470;9.832;2022-11-15T13:35:51;100708.00;;;15.21;84.19
8101;BME280;4093;53.470;9.832;2022-11-15T13:38:26;100684.53;;;14.49;85.54
8101;BME280;4093;53.470;9.832;2022-11-15T13:40:57;100691.72;;;14.41;86.88
8101;BME280;4093;53.470;9.832;2022-11-15T13:43:33;100690.28;;;14.32;86.94
8101;BME280;4093;53.470;9.832;2022-11-15T13:46:12;100694.16;;;14.72;86.02
8101;BME280;4093;53.470;9.832;2022-11-15T13:48:41;100692.13;;;14.80;84.98
8101;BME280;4093;53.470;9.832;2022-11-15T13:51:16;100687.81;;;14.79;85.13
8101;BME280;4093;53.470;9.832;2022-11-15T13:53:49;100684.88;;;14.88;85.63